Terminal Aerodrome Forecast
Issued by NWS

Home | Current Version | Previous Version | Text Only | Print | Product List | Glossary On
Versions: 1 2 3 4 5 6 7 8 9 10 11 12 13 14 15 16 17 18 19 20 21 22 23 24
545
FTUS45 KRIW 142337
TAFPNA
TAF
KPNA 142337Z 1500/1524 30013G21KT P6SM VCSH SCT030 BKN060
     FM150200 29007KT P6SM VCSH SCT025 BKN050
     FM151000 30008KT 4SM -SN OVC015
     FM151700 30017G27KT P6SM VCSH SCT030 BKN050
      AMD NOT SKED=

USA.gov is the U.S. government's official web portal to all federal, state and local government web resources and services.